sensor_id;sensor_type;location;lat;lon;timestamp;P1;durP1;ratioP1;P2;durP2;ratioP2
30068;SDS011;16894;49.456;10.644;2023-04-01T00:00:21;11.65;;;10.48;;
30068;SDS011;16894;49.456;10.644;2023-04-01T00:02:53;11.77;;;10.63;;
30068;SDS011;16894;49.456;10.644;2023-04-01T00:05:25;12.65;;;11.50;;
30068;SDS011;16894;49.456;10.644;2023-04-01T00:07:52;11.45;;;10.23;;
30068;SDS011;16894;49.456;10.644;2023-04-01T00:10:24;10.75;;;9.80;;
30068;SDS011;16894;49.456;10.644;2023-04-01T00:12:56;10.32;;;9.40;;
30068;SDS011;16894;49.456;10.644;2023-04-01T00:15:28;10.10;;;8.07;;
30068;SDS011;16894;49.456;10.644;2023-04-01T00:18:01;10.43;;;9.38;;
30068;SDS011;16894;49.456;10.644;2023-04-01T00:20:33;11.30;;;10.23;;
30068;SDS011;16894;49.456;10.644;2023-04-01T00:23:05;9.07;;;8.38;;
30068;SDS011;16894;49.456;10.644;2023-04-01T00:25:37;13.80;;;12.80;;
30068;SDS011;16894;49.456;10.644;2023-04-01T00:28:09;11.45;;;8.98;;
30068;SDS011;16894;49.456;10.644;2023-04-01T00:30:41;11.25;;;10.43;;
30068;SDS011;16894;49.456;10.644;2023-04-01T00:33:12;9.98;;;9.07;;
30068;SDS011;16894;49.456;10.644;2023-04-01T00:35:45;8.00;;;7.43;;
30068;SDS011;16894;49.456;10.644;2023-04-01T00:38:17;9.35;;;8.40;;
30068;SDS011;16894;49.456;10.644;2023-04-01T00:40:50;9.25;;;7.97;;
30068;SDS011;16894;49.456;10.644;2023-04-01T00:43:29;9.77;;;9.07;;
30068;SDS011;16894;49.456;10.644;2023-04-01T00:46:02;10.68;;;9.68;;
30068;SDS011;16894;49.456;10.644;2023-04-01T00:48:35;8.18;;;7.47;;
30068;SDS011;16894;49.456;10.644;2023-04-01T00:53:45;11.05;;;10.18;;
30068;SDS011;16894;49.456;10.644;2023-04-01T00:56:22;9.82;;;8.60;;
30068;SDS011;16894;49.456;10.644;2023-04-01T00:59:00;11.02;;;9.02;;
30068;SDS011;16894;49.456;10.644;2023-04-01T01:01:35;9.35;;;8.55;;
30068;SDS011;16894;49.456;10.644;2023-04-01T01:04:20;10.70;;;9.38;;
30068;SDS011;16894;49.456;10.644;2023-04-01T01:10:08;7.65;;;6.97;;
30068;SDS011;16894;49.456;10.644;2023-04-01T01:18:56;9.93;;;9.15;;
30068;SDS011;16894;49.456;10.644;2023-04-01T01:24:29;10.30;;;9.48;;
30068;SDS011;16894;49.456;10.644;2023-04-01T01:27:17;9.45;;;8.57;;
30068;SDS011;16894;49.456;10.644;2023-04-01T01:35:27;9.70;;;8.80;;
30068;SDS011;16894;49.456;10.644;2023-04-01T01:38:15;10.30;;;9.23;;
30068;SDS011;16894;49.456;10.644;2023-04-01T01:40:50;9.07;;;8.20;;
30068;SDS011;16894;49.456;10.644;2023-04-01T01:43:25;9.80;;;8.90;;
30068;SDS011;16894;49.456;10.644;2023-04-01T01:46:02;10.50;;;9.63;;
30068;SDS011;16894;49.456;10.644;2023-04-01T01:48:40;9.75;;;8.90;;
30068;SDS011;16894;49.456;10.644;2023-04-01T01:51:14;10.38;;;7.32;;
30068;SDS011;16894;49.456;10.644;2023-04-01T01:53:46;9.43;;;8.63;;
30068;SDS011;16894;49.456;10.644;2023-04-01T01:56:19;9.63;;;7.95;;
30068;SDS011;16894;49.456;10.644;2023-04-01T01:58:56;10.33;;;9.53;;
30068;SDS011;16894;49.456;10.644;2023-04-01T02:01:34;8.73;;;8.05;;
30068;SDS011;16894;49.456;10.644;2023-04-01T02:04:11;8.35;;;7.63;;
30068;SDS011;16894;49.456;10.644;2023-04-01T02:06:48;8.07;;;7.47;;
30068;SDS011;16894;49.456;10.644;2023-04-01T02:09:27;9.90;;;8.35;;
30068;SDS011;16894;49.456;10.644;2023-04-01T02:12:02;8.55;;;7.00;;
30068;SDS011;16894;49.456;10.644;2023-04-01T02:14:38;8.65;;;7.97;;
30068;SDS011;16894;49.456;10.644;2023-04-01T02:17:18;8.70;;;7.75;;
30068;SDS011;16894;49.456;10.644;2023-04-01T02:20:04;8.63;;;7.78;;
30068;SDS011;16894;49.456;10.644;2023-04-01T02:22:42;10.25;;;9.40;;
30068;SDS011;16894;49.456;10.644;2023-04-01T02:25:25;8.68;;;7.93;;
30068;SDS011;16894;49.456;10.644;2023-04-01T02:28:00;11.35;;;9.00;;
30068;SDS011;16894;49.456;10.644;2023-04-01T02:30:34;9.73;;;8.82;;
30068;SDS011;16894;49.456;10.644;2023-04-01T02:33:08;10.32;;;9.27;;
30068;SDS011;16894;49.456;10.644;2023-04-01T02:35:39;9.52;;;8.73;;
30068;SDS011;16894;49.456;10.644;2023-04-01T02:38:11;11.55;;;8.70;;
30068;SDS011;16894;49.456;10.644;2023-04-01T02:40:48;9.85;;;8.90;;
30068;SDS011;16894;49.456;10.644;2023-04-01T02:43:22;10.43;;;9.50;;
30068;SDS011;16894;49.456;10.644;2023-04-01T02:45:55;14.02;;;9.82;;
30068;SDS011;16894;49.456;10.644;2023-04-01T02:48:27;9.18;;;8.38;;
30068;SDS011;16894;49.456;10.644;2023-04-01T02:51:00;10.70;;;9.70;;
30068;SDS011;16894;49.456;10.644;2023-04-01T02:53:32;11.90;;;10.63;;
30068;SDS011;16894;49.456;10.644;2023-04-01T02:56:03;10.65;;;8.23;;
30068;SDS011;16894;49.456;10.644;2023-04-01T02:58:36;9.95;;;8.63;;
30068;SDS011;16894;49.456;10.644;2023-04-01T03:01:08;13.98;;;8.43;;
30068;SDS011;16894;49.456;10.644;2023-04-01T03:03:40;10.57;;;9.65;;
30068;SDS011;16894;49.456;10.644;2023-04-01T03:06:13;11.48;;;9.77;;
30068;SDS011;16894;49.456;10.644;2023-04-01T03:08:46;16.02;;;9.00;;
30068;SDS011;16894;49.456;10.644;2023-04-01T03:11:18;8.45;;;7.93;;
30068;SDS011;16894;49.456;10.644;2023-04-01T03:13:50;9.85;;;8.85;;
30068;SDS011;16894;49.456;10.644;2023-04-01T03:16:22;13.90;;;10.10;;
30068;SDS011;16894;49.456;10.644;2023-04-01T03:18:55;9.70;;;8.93;;
30068;SDS011;16894;49.456;10.644;2023-04-01T03:21:29;9.70;;;8.82;;
30068;SDS011;16894;49.456;10.644;2023-04-01T03:24:01;16.00;;;14.45;;
30068;SDS011;16894;49.456;10.644;2023-04-01T03:26:32;15.23;;;10.23;;
30068;SDS011;16894;49.456;10.644;2023-04-01T03:29:04;11.48;;;10.38;;
30068;SDS011;16894;49.456;10.644;2023-04-01T03:31:36;11.10;;;9.73;;
30068;SDS011;16894;49.456;10.644;2023-04-01T03:34:07;11.52;;;10.10;;
30068;SDS011;16894;49.456;10.644;2023-04-01T03:36:40;11.55;;;10.07;;
30068;SDS011;16894;49.456;10.644;2023-04-01T03:39:12;10.18;;;9.18;;
30068;SDS011;16894;49.456;10.644;2023-04-01T03:41:46;14.40;;;10.57;;
30068;SDS011;16894;49.456;10.644;2023-04-01T03:44:17;10.82;;;9.85;;
30068;SDS011;16894;49.456;10.644;2023-04-01T03:46:50;10.48;;;9.50;;
30068;SDS011;16894;49.456;10.644;2023-04-01T03:49:22;9.77;;;8.95;;
30068;SDS011;16894;49.456;10.644;2023-04-01T03:51:54;10.20;;;9.18;;
30068;SDS011;16894;49.456;10.644;2023-04-01T03:54:26;9.68;;;8.93;;
30068;SDS011;16894;49.456;10.644;2023-04-01T03:56:59;11.23;;;10.07;;
30068;SDS011;16894;49.456;10.644;2023-04-01T03:59:31;8.65;;;7.68;;
30068;SDS011;16894;49.456;10.644;2023-04-01T04:02:03;9.82;;;8.90;;
30068;SDS011;16894;49.456;10.644;2023-04-01T04:04:35;9.55;;;8.75;;
30068;SDS011;16894;49.456;10.644;2023-04-01T04:07:06;9.10;;;8.20;;
30068;SDS011;16894;49.456;10.644;2023-04-01T04:09:37;8.55;;;8.02;;
30068;SDS011;16894;49.456;10.644;2023-04-01T04:12:10;8.15;;;7.45;;
30068;SDS011;16894;49.456;10.644;2023-04-01T04:14:41;9.88;;;8.93;;
30068;SDS011;16894;49.456;10.644;2023-04-01T04:17:13;8.18;;;7.32;;
30068;SDS011;16894;49.456;10.644;2023-04-01T04:19:47;11.27;;;10.35;;
30068;SDS011;16894;49.456;10.644;2023-04-01T04:22:18;10.32;;;7.70;;
30068;SDS011;16894;49.456;10.644;2023-04-01T04:24:50;8.02;;;7.07;;
30068;SDS011;16894;49.456;10.644;2023-04-01T04:27:22;9.98;;;9.07;;
30068;SDS011;16894;49.456;10.644;2023-04-01T04:29:54;9.30;;;8.55;;
30068;SDS011;16894;49.456;10.644;2023-04-01T04:32:27;11.48;;;10.32;;
30068;SDS011;16894;49.456;10.644;2023-04-01T04:34:59;10.27;;;8.98;;
30068;SDS011;16894;49.456;10.644;2023-04-01T04:37:31;10.07;;;8.73;;
30068;SDS011;16894;49.456;10.644;2023-04-01T04:40:02;13.15;;;9.80;;
30068;SDS011;16894;49.456;10.644;2023-04-01T04:42:34;12.25;;;11.40;;
30068;SDS011;16894;49.456;10.644;2023-04-01T04:45:06;10.45;;;9.73;;
30068;SDS011;16894;49.456;10.644;2023-04-01T04:47:38;10.50;;;9.60;;
30068;SDS011;16894;49.456;10.644;2023-04-01T04:50:09;11.55;;;10.57;;
30068;SDS011;16894;49.456;10.644;2023-04-01T04:52:42;9.40;;;8.60;;
30068;SDS011;16894;49.456;10.644;2023-04-01T04:55:14;10.85;;;9.95;;
30068;SDS011;16894;49.456;10.644;2023-04-01T04:57:46;10.27;;;9.55;;
30068;SDS011;16894;49.456;10.644;2023-04-01T05:00:18;8.18;;;7.68;;
30068;SDS011;16894;49.456;10.644;2023-04-01T05:02:50;9.50;;;8.23;;
30068;SDS011;16894;49.456;10.644;2023-04-01T05:05:23;11.77;;;10.88;;
30068;SDS011;16894;49.456;10.644;2023-04-01T05:07:55;12.60;;;11.43;;
30068;SDS011;16894;49.456;10.644;2023-04-01T05:10:27;10.98;;;9.93;;
30068;SDS011;16894;49.456;10.644;2023-04-01T05:12:58;11.40;;;10.50;;
30068;SDS011;16894;49.456;10.644;2023-04-01T05:15:32;66.95;;;33.58;;
30068;SDS011;16894;49.456;10.644;2023-04-01T05:18:04;52.60;;;28.33;;
30068;SDS011;16894;49.456;10.644;2023-04-01T05:20:36;193.05;;;77.78;;
30068;SDS011;16894;49.456;10.644;2023-04-01T05:23:08;39.40;;;25.05;;
30068;SDS011;16894;49.456;10.644;2023-04-01T05:25:40;29.73;;;19.95;;
30068;SDS011;16894;49.456;10.644;2023-04-01T05:28:12;30.83;;;22.10;;
30068;SDS011;16894;49.456;10.644;2023-04-01T05:30:43;14.40;;;11.55;;
30068;SDS011;16894;49.456;10.644;2023-04-01T05:33:16;17.10;;;15.18;;
30068;SDS011;16894;49.456;10.644;2023-04-01T05:35:48;44.38;;;26.40;;
30068;SDS011;16894;49.456;10.644;2023-04-01T05:38:20;17.27;;;13.95;;
30068;SDS011;16894;49.456;10.644;2023-04-01T05:40:58;29.33;;;20.73;;
30068;SDS011;16894;49.456;10.644;2023-04-01T05:43:31;16.63;;;13.85;;
30068;SDS011;16894;49.456;10.644;2023-04-01T05:46:05;11.73;;;10.98;;
30068;SDS011;16894;49.456;10.644;2023-04-01T05:48:37;16.83;;;15.20;;
30068;SDS011;16894;49.456;10.644;2023-04-01T05:51:13;12.18;;;10.88;;
30068;SDS011;16894;49.456;10.644;2023-04-01T05:53:46;17.48;;;13.90;;
30068;SDS011;16894;49.456;10.644;2023-04-01T05:56:18;11.10;;;10.30;;
30068;SDS011;16894;49.456;10.644;2023-04-01T05:58:53;20.02;;;15.40;;
30068;SDS011;16894;49.456;10.644;2023-04-01T06:01:25;20.77;;;13.60;;
30068;SDS011;16894;49.456;10.644;2023-04-01T06:03:57;11.43;;;10.52;;
30068;SDS011;16894;49.456;10.644;2023-04-01T06:06:29;14.15;;;13.07;;
30068;SDS011;16894;49.456;10.644;2023-04-01T06:09:16;17.05;;;16.00;;
30068;SDS011;16894;49.456;10.644;2023-04-01T06:14:56;14.73;;;13.35;;
30068;SDS011;16894;49.456;10.644;2023-04-01T06:26:37;17.35;;;16.17;;
30068;SDS011;16894;49.456;10.644;2023-04-01T06:35:17;11.38;;;10.32;;
30068;SDS011;16894;49.456;10.644;2023-04-01T06:38:24;11.57;;;10.40;;
30068;SDS011;16894;49.456;10.644;2023-04-01T06:41:52;7.85;;;7.22;;
30068;SDS011;16894;49.456;10.644;2023-04-01T06:55:53;4.82;;;4.40;;
30068;SDS011;16894;49.456;10.644;2023-04-01T06:58:35;5.00;;;4.40;;
30068;SDS011;16894;49.456;10.644;2023-04-01T07:01:16;4.50;;;4.15;;
30068;SDS011;16894;49.456;10.644;2023-04-01T07:03:54;11.02;;;4.10;;
30068;SDS011;16894;49.456;10.644;2023-04-01T07:06:37;5.13;;;3.28;;
30068;SDS011;16894;49.456;10.644;2023-04-01T07:09:19;8.27;;;3.33;;
30068;SDS011;16894;49.456;10.644;2023-04-01T07:12:06;7.07;;;5.78;;
30068;SDS011;16894;49.456;10.644;2023-04-01T07:14:46;5.88;;;4.18;;
30068;SDS011;16894;49.456;10.644;2023-04-01T07:17:21;5.53;;;3.60;;
30068;SDS011;16894;49.456;10.644;2023-04-01T07:20:02;2.63;;;2.40;;
30068;SDS011;16894;49.456;10.644;2023-04-01T07:22:51;6.82;;;4.07;;
30068;SDS011;16894;49.456;10.644;2023-04-01T07:25:33;3.75;;;3.40;;
30068;SDS011;16894;49.456;10.644;2023-04-01T07:28:11;5.05;;;3.33;;
30068;SDS011;16894;49.456;10.644;2023-04-01T07:31:04;3.45;;;3.00;;
30068;SDS011;16894;49.456;10.644;2023-04-01T07:33:41;8.18;;;3.70;;
30068;SDS011;16894;49.456;10.644;2023-04-01T07:41:55;7.00;;;4.28;;
30068;SDS011;16894;49.456;10.644;2023-04-01T07:44:52;4.60;;;3.08;;
30068;SDS011;16894;49.456;10.644;2023-04-01T07:53:22;5.28;;;4.18;;
30068;SDS011;16894;49.456;10.644;2023-04-01T08:01:58;5.03;;;4.43;;
30068;SDS011;16894;49.456;10.644;2023-04-01T08:15:47;5.03;;;4.55;;
30068;SDS011;16894;49.456;10.644;2023-04-01T08:19:04;3.85;;;3.55;;
30068;SDS011;16894;49.456;10.644;2023-04-01T08:21:51;4.65;;;3.42;;
30068;SDS011;16894;49.456;10.644;2023-04-01T08:24:40;4.20;;;3.90;;
30068;SDS011;16894;49.456;10.644;2023-04-01T08:27:25;5.70;;;4.00;;
30068;SDS011;16894;49.456;10.644;2023-04-01T08:33:24;3.92;;;3.63;;
30068;SDS011;16894;49.456;10.644;2023-04-01T08:36:03;5.00;;;3.70;;
30068;SDS011;16894;49.456;10.644;2023-04-01T08:38:44;3.45;;;3.25;;
30068;SDS011;16894;49.456;10.644;2023-04-01T08:53:34;5.32;;;3.20;;
30068;SDS011;16894;49.456;10.644;2023-04-01T08:56:26;13.07;;;4.35;;
30068;SDS011;16894;49.456;10.644;2023-04-01T08:59:20;3.65;;;3.35;;
30068;SDS011;16894;49.456;10.644;2023-04-01T09:07:40;3.92;;;3.65;;
30068;SDS011;16894;49.456;10.644;2023-04-01T09:10:24;3.75;;;3.53;;
30068;SDS011;16894;49.456;10.644;2023-04-01T09:19:06;4.93;;;4.45;;
30068;SDS011;16894;49.456;10.644;2023-04-01T09:22:06;3.90;;;3.40;;
30068;SDS011;16894;49.456;10.644;2023-04-01T09:33:17;3.83;;;3.25;;
30068;SDS011;16894;49.456;10.644;2023-04-01T09:36:18;2.75;;;2.55;;
30068;SDS011;16894;49.456;10.644;2023-04-01T09:44:43;4.53;;;3.22;;
30068;SDS011;16894;49.456;10.644;2023-04-01T09:50:35;7.07;;;3.78;;
30068;SDS011;16894;49.456;10.644;2023-04-01T09:59:24;6.32;;;5.93;;
30068;SDS011;16894;49.456;10.644;2023-04-01T10:14:52;6.40;;;4.18;;
30068;SDS011;16894;49.456;10.644;2023-04-01T10:17:54;7.47;;;3.83;;
30068;SDS011;16894;49.456;10.644;2023-04-01T10:35:08;11.25;;;9.98;;
30068;SDS011;16894;49.456;10.644;2023-04-01T10:38:05;7.78;;;7.07;;
30068;SDS011;16894;49.456;10.644;2023-04-01T10:40:59;6.38;;;6.07;;
30068;SDS011;16894;49.456;10.644;2023-04-01T11:08:24;4.82;;;4.50;;
30068;SDS011;16894;49.456;10.644;2023-04-01T11:22:32;5.88;;;5.43;;
30068;SDS011;16894;49.456;10.644;2023-04-01T11:31:25;7.90;;;7.40;;
30068;SDS011;16894;49.456;10.644;2023-04-01T11:37:29;7.95;;;7.40;;
30068;SDS011;16894;49.456;10.644;2023-04-01T12:04:11;2.75;;;2.63;;
30068;SDS011;16894;49.456;10.644;2023-04-01T12:06:49;6.07;;;3.58;;
30068;SDS011;16894;49.456;10.644;2023-04-01T12:12:28;3.75;;;3.42;;
30068;SDS011;16894;49.456;10.644;2023-04-01T12:24:02;2.15;;;1.95;;
30068;SDS011;16894;49.456;10.644;2023-04-01T12:27:16;2.30;;;2.10;;
30068;SDS011;16894;49.456;10.644;2023-04-01T12:33:17;4.07;;;3.85;;
30068;SDS011;16894;49.456;10.644;2023-04-01T12:35:55;2.75;;;1.92;;
30068;SDS011;16894;49.456;10.644;2023-04-01T12:59:46;2.92;;;2.70;;
30068;SDS011;16894;49.456;10.644;2023-04-01T13:14:18;3.72;;;3.42;;
30068;SDS011;16894;49.456;10.644;2023-04-01T13:23:06;2.95;;;2.33;;
30068;SDS011;16894;49.456;10.644;2023-04-01T13:28:28;1.98;;;1.88;;
30068;SDS011;16894;49.456;10.644;2023-04-01T13:31:07;8.32;;;2.28;;
30068;SDS011;16894;49.456;10.644;2023-04-01T13:34:00;2.38;;;2.17;;
30068;SDS011;16894;49.456;10.644;2023-04-01T13:36:49;2.70;;;2.28;;
30068;SDS011;16894;49.456;10.644;2023-04-01T13:39:41;2.30;;;2.20;;
30068;SDS011;16894;49.456;10.644;2023-04-01T13:42:31;2.05;;;1.95;;
30068;SDS011;16894;49.456;10.644;2023-04-01T13:45:12;2.05;;;1.95;;
30068;SDS011;16894;49.456;10.644;2023-04-01T13:47:57;2.35;;;2.25;;
30068;SDS011;16894;49.456;10.644;2023-04-01T13:53:22;2.58;;;2.38;;
30068;SDS011;16894;49.456;10.644;2023-04-01T13:56:12;2.30;;;2.17;;
30068;SDS011;16894;49.456;10.644;2023-04-01T14:07:44;6.03;;;5.50;;
30068;SDS011;16894;49.456;10.644;2023-04-01T14:13:26;8.80;;;8.10;;
30068;SDS011;16894;49.456;10.644;2023-04-01T14:24:41;1.88;;;1.77;;
30068;SDS011;16894;49.456;10.644;2023-04-01T14:36:42;3.03;;;2.63;;
30068;SDS011;16894;49.456;10.644;2023-04-01T14:45:23;2.30;;;1.52;;
30068;SDS011;16894;49.456;10.644;2023-04-01T14:48:30;2.25;;;2.03;;
30068;SDS011;16894;49.456;10.644;2023-04-01T14:51:10;3.10;;;2.67;;
30068;SDS011;16894;49.456;10.644;2023-04-01T14:54:00;1.95;;;1.63;;
30068;SDS011;16894;49.456;10.644;2023-04-01T14:59:49;1.63;;;1.52;;
30068;SDS011;16894;49.456;10.644;2023-04-01T15:05:27;3.78;;;3.47;;
30068;SDS011;16894;49.456;10.644;2023-04-01T15:08:27;2.22;;;2.13;;
30068;SDS011;16894;49.456;10.644;2023-04-01T15:17:14;3.53;;;1.83;;
30068;SDS011;16894;49.456;10.644;2023-04-01T15:26:01;1.85;;;1.00;;
30068;SDS011;16894;49.456;10.644;2023-04-01T15:29:11;1.30;;;1.13;;
30068;SDS011;16894;49.456;10.644;2023-04-01T15:35:03;4.00;;;2.83;;
30068;SDS011;16894;49.456;10.644;2023-04-01T15:37:56;8.27;;;7.55;;
30068;SDS011;16894;49.456;10.644;2023-04-01T15:43:36;17.10;;;10.07;;
30068;SDS011;16894;49.456;10.644;2023-04-01T15:52:23;2.90;;;2.70;;
30068;SDS011;16894;49.456;10.644;2023-04-01T16:01:15;3.33;;;3.03;;
30068;SDS011;16894;49.456;10.644;2023-04-01T16:06:50;3.72;;;3.42;;
30068;SDS011;16894;49.456;10.644;2023-04-01T16:15:26;4.32;;;3.60;;
30068;SDS011;16894;49.456;10.644;2023-04-01T16:21:08;3.63;;;2.50;;
30068;SDS011;16894;49.456;10.644;2023-04-01T16:24:12;5.10;;;2.97;;
30068;SDS011;16894;49.456;10.644;2023-04-01T16:29:56;2.53;;;2.28;;
30068;SDS011;16894;49.456;10.644;2023-04-01T16:40:44;2.95;;;2.75;;
30068;SDS011;16894;49.456;10.644;2023-04-01T16:54:44;4.00;;;2.65;;
30068;SDS011;16894;49.456;10.644;2023-04-01T16:57:31;8.98;;;4.35;;
30068;SDS011;16894;49.456;10.644;2023-04-01T17:03:11;4.88;;;2.85;;
30068;SDS011;16894;49.456;10.644;2023-04-01T17:08:29;14.73;;;8.38;;
30068;SDS011;16894;49.456;10.644;2023-04-01T17:11:21;2.35;;;2.15;;
30068;SDS011;16894;49.456;10.644;2023-04-01T17:14:21;16.60;;;8.43;;
30068;SDS011;16894;49.456;10.644;2023-04-01T17:17:43;2.22;;;1.75;;
30068;SDS011;16894;49.456;10.644;2023-04-01T17:26:06;2.28;;;2.10;;
30068;SDS011;16894;49.456;10.644;2023-04-01T17:31:45;3.83;;;2.00;;
30068;SDS011;16894;49.456;10.644;2023-04-01T17:34:30;5.22;;;3.20;;
30068;SDS011;16894;49.456;10.644;2023-04-01T17:37:28;3.22;;;1.77;;
30068;SDS011;16894;49.456;10.644;2023-04-01T17:43:15;2.08;;;1.55;;
30068;SDS011;16894;49.456;10.644;2023-04-01T17:58:06;6.18;;;3.05;;
30068;SDS011;16894;49.456;10.644;2023-04-01T18:12:18;3.53;;;3.22;;
30068;SDS011;16894;49.456;10.644;2023-04-01T18:15:31;3.60;;;3.30;;
30068;SDS011;16894;49.456;10.644;2023-04-01T18:18:56;6.30;;;4.00;;
30068;SDS011;16894;49.456;10.644;2023-04-01T18:24:14;4.18;;;3.78;;
30068;SDS011;16894;49.456;10.644;2023-04-01T18:26:50;4.15;;;3.75;;
30068;SDS011;16894;49.456;10.644;2023-04-01T18:29:49;6.88;;;2.95;;
30068;SDS011;16894;49.456;10.644;2023-04-01T18:32:31;6.13;;;3.38;;
30068;SDS011;16894;49.456;10.644;2023-04-01T18:35:21;5.05;;;3.35;;
30068;SDS011;16894;49.456;10.644;2023-04-01T18:38:00;3.47;;;3.28;;
30068;SDS011;16894;49.456;10.644;2023-04-01T18:43:59;7.10;;;4.00;;
30068;SDS011;16894;49.456;10.644;2023-04-01T18:46:57;4.38;;;4.07;;
30068;SDS011;16894;49.456;10.644;2023-04-01T18:52:34;4.50;;;4.10;;
30068;SDS011;16894;49.456;10.644;2023-04-01T18:57:56;4.75;;;4.32;;
30068;SDS011;16894;49.456;10.644;2023-04-01T19:00:46;7.13;;;4.32;;
30068;SDS011;16894;49.456;10.644;2023-04-01T19:06:08;4.57;;;3.58;;
30068;SDS011;16894;49.456;10.644;2023-04-01T19:08:49;4.05;;;3.75;;
30068;SDS011;16894;49.456;10.644;2023-04-01T19:16:55;7.88;;;5.80;;
30068;SDS011;16894;49.456;10.644;2023-04-01T19:22:30;4.78;;;2.53;;
30068;SDS011;16894;49.456;10.644;2023-04-01T19:34:15;2.35;;;1.77;;
30068;SDS011;16894;49.456;10.644;2023-04-01T19:36:53;4.18;;;1.80;;
30068;SDS011;16894;49.456;10.644;2023-04-01T19:42:34;4.15;;;1.65;;
30068;SDS011;16894;49.456;10.644;2023-04-01T19:45:38;7.38;;;1.80;;
30068;SDS011;16894;49.456;10.644;2023-04-01T19:48:18;3.80;;;1.70;;
30068;SDS011;16894;49.456;10.644;2023-04-01T19:51:01;4.15;;;2.00;;
30068;SDS011;16894;49.456;10.644;2023-04-01T19:53:52;4.18;;;1.63;;
30068;SDS011;16894;49.456;10.644;2023-04-01T19:56:37;2.85;;;1.85;;
30068;SDS011;16894;49.456;10.644;2023-04-01T19:59:33;4.80;;;2.03;;
30068;SDS011;16894;49.456;10.644;2023-04-01T20:04:48;3.40;;;1.77;;
30068;SDS011;16894;49.456;10.644;2023-04-01T20:07:41;1.73;;;1.50;;
30068;SDS011;16894;49.456;10.644;2023-04-01T20:10:29;1.55;;;1.45;;
30068;SDS011;16894;49.456;10.644;2023-04-01T20:15:47;1.95;;;1.73;;
30068;SDS011;16894;49.456;10.644;2023-04-01T20:18:34;2.35;;;1.73;;
30068;SDS011;16894;49.456;10.644;2023-04-01T20:24:33;2.25;;;2.00;;
30068;SDS011;16894;49.456;10.644;2023-04-01T20:29:56;1.80;;;1.70;;
30068;SDS011;16894;49.456;10.644;2023-04-01T20:48:53;1.50;;;1.35;;
30068;SDS011;16894;49.456;10.644;2023-04-01T20:52:15;3.05;;;1.65;;
30068;SDS011;16894;49.456;10.644;2023-04-01T20:57:35;3.47;;;1.45;;
30068;SDS011;16894;49.456;10.644;2023-04-01T21:03:06;4.50;;;1.58;;
30068;SDS011;16894;49.456;10.644;2023-04-01T21:08:53;5.63;;;1.40;;
30068;SDS011;16894;49.456;10.644;2023-04-01T21:17:34;2.45;;;2.00;;
30068;SDS011;16894;49.456;10.644;2023-04-01T21:20:27;1.27;;;1.17;;
30068;SDS011;16894;49.456;10.644;2023-04-01T21:37:58;2.00;;;1.30;;
30068;SDS011;16894;49.456;10.644;2023-04-01T21:40:44;11.43;;;1.52;;
30068;SDS011;16894;49.456;10.644;2023-04-01T21:46:16;4.38;;;1.77;;
30068;SDS011;16894;49.456;10.644;2023-04-01T21:57:34;2.35;;;2.15;;
30068;SDS011;16894;49.456;10.644;2023-04-01T22:00:24;2.33;;;1.45;;
30068;SDS011;16894;49.456;10.644;2023-04-01T22:04:04;1.42;;;1.33;;
30068;SDS011;16894;49.456;10.644;2023-04-01T22:06:38;4.22;;;1.70;;
30068;SDS011;16894;49.456;10.644;2023-04-01T22:15:08;1.98;;;1.60;;
30068;SDS011;16894;49.456;10.644;2023-04-01T22:21:12;2.58;;;2.10;;
30068;SDS011;16894;49.456;10.644;2023-04-01T22:23:34;2.35;;;1.50;;
30068;SDS011;16894;49.456;10.644;2023-04-01T22:26:16;6.13;;;1.70;;
30068;SDS011;16894;49.456;10.644;2023-04-01T22:29:11;3.10;;;1.50;;
30068;SDS011;16894;49.456;10.644;2023-04-01T22:31:55;2.83;;;1.65;;
30068;SDS011;16894;49.456;10.644;2023-04-01T22:34:45;3.28;;;1.60;;
30068;SDS011;16894;49.456;10.644;2023-04-01T22:42:57;7.68;;;1.80;;
30068;SDS011;16894;49.456;10.644;2023-04-01T22:48:46;4.80;;;2.45;;
30068;SDS011;16894;49.456;10.644;2023-04-01T22:54:36;3.65;;;1.98;;
30068;SDS011;16894;49.456;10.644;2023-04-01T22:57:14;3.13;;;2.22;;
30068;SDS011;16894;49.456;10.644;2023-04-01T23:05:51;2.40;;;1.92;;
30068;SDS011;16894;49.456;10.644;2023-04-01T23:11:32;1.65;;;1.55;;
30068;SDS011;16894;49.456;10.644;2023-04-01T23:14:15;4.30;;;2.25;;
30068;SDS011;16894;49.456;10.644;2023-04-01T23:17:26;3.72;;;1.88;;
30068;SDS011;16894;49.456;10.644;2023-04-01T23:26:21;2.55;;;2.00;;
30068;SDS011;16894;49.456;10.644;2023-04-01T23:28:39;2.90;;;2.08;;
30068;SDS011;16894;49.456;10.644;2023-04-01T23:36:29;4.63;;;2.25;;
30068;SDS011;16894;49.456;10.644;2023-04-01T23:39:04;5.85;;;2.47;;
30068;SDS011;16894;49.456;10.644;2023-04-01T23:41:53;4.28;;;2.40;;
30068;SDS011;16894;49.456;10.644;2023-04-01T23:47:02;3.70;;;2.50;;
30068;SDS011;16894;49.456;10.644;2023-04-01T23:49:37;6.15;;;2.50;;
30068;SDS011;16894;49.456;10.644;2023-04-01T23:52:22;2.72;;;2.15;;
30068;SDS011;16894;49.456;10.644;2023-04-01T23:55:03;4.30;;;2.55;;
30068;SDS011;16894;49.456;10.644;2023-04-01T23:57:35;3.40;;;2.28;;
